Eastland Municipal Airport

About

Name: Eastland Municipal Airport
Identifier:  ETN/KETN
Local Time:  26. Jan 20:13 CST

Location

Eastland Municipal Airport

Statistics

Flights Per Day:
0 Flights
Distance: 1,538km (955mi)
Flights Delayed:
50% (0 Flights/Day Delayed)
Average Delay: 33 minutes

Current Weather

 7 C (Humidity: 70%)
  0kt (0km/h / 0mph) from 0°
  16km (10 mi.)
 METAR KETN 270155Z AUTO 00000KT 10SM CLR 07/02 A3002 RMK AO2 T00670024

Claim Compensation

Claim compensation for your flight delay or cancellation
Flight delays happen, but that doesn’t mean you have to accept them. You may be entitled to as much as €600/$700 in compensation if your flight has been delayed, canceled or overbooked within the last three years.

Current Delays

Departures

N/A

Arrivals

N/A

Destinations

Map

Top Destinations

Airport Flights
per week
Seats
per week
  Winslow (INW) 0 - 0 0
  Visalia (VIS) 0 - 0 0

Airlines & Planes

Top Airlines

Airline Flights
per day
Seats
per day
  Flybe Nordic 0 -

Top Models

model Flights seats
Beech B200 Super King Air 0.1/day - 0